| time (UTC) | temp F | wind direction | speed MPH | gust MPH | rain 1hr in | rain 24hr in | rain mn in | humidity % | barometer mb |
| 20260905040104 | 82 | 165 | 0.0 | 1.0 | 0.00 | 0.03 | 0.03 | 84 | 1014.5 |
| 20260905034613 | 83 | 0 | 0.0 | 1.0 | 0.00 | 0.03 | 0.03 | 82 | 1014.6 |
| 20260905033110 | 83 | 165 | 0.0 | 3.0 | 0.00 | 0.03 | 0.03 | 82 | 1014.7 |
| 20260905031615 | 83 | 0 | 0.0 | 1.0 | 0.00 | 0.03 | 0.03 | 81 | 1014.6 |
| 20260905030110 | 84 | 165 | 0.0 | 3.0 | 0.00 | 0.03 | 0.03 | 80 | 1014.7 |
| 20260905024604 | 84 | 0 | 0.0 | 2.0 | 0.00 | 0.03 | 0.03 | 79 | 1014.6 |
| 20260905023137 | 84 | 0 | 0.0 | 2.0 | 0.00 | 0.03 | 0.03 | 78 | 1014.4 |
| 20260905021606 | 85 | 165 | 0.0 | 4.0 | 0.00 | 0.03 | 0.03 | 77 | 1014.1 |
| 20260905020106 | 85 | 0 | 0.0 | 3.0 | 0.00 | 0.03 | 0.03 | 75 | 1013.9 |
| 20260905014620 | 85 | 0 | 0.0 | 7.0 | 0.00 | 0.03 | 0.03 | 75 | 1013.8 |
| 20260905013109 | 85 | 165 | 1.0 | 1.0 | 0.00 | 0.03 | 0.03 | 73 | 1013.7 |
| 20260905011606 | 85 | 165 | 1.0 | 3.0 | 0.00 | 0.03 | 0.03 | 72 | 1013.6 |
| 20260905010105 | 87 | 164 | 0.0 | 2.0 | 0.00 | 0.03 | 0.03 | 70 | 1013.5 |
| 20260905004609 | 87 | 0 | 1.0 | 4.0 | 0.00 | 0.03 | 0.03 | 68 | 1013.5 |
| 20260905003106 | 88 | 0 | 0.0 | 3.0 | 0.00 | 0.03 | 0.03 | 66 | 1013.2 |
| 20260905001610 | 88 | 0 | 1.0 | 4.0 | 0.00 | 0.03 | 0.03 | 67 | 1013.1 |
| 20260905000124 | 89 | 165 | 0.0 | 3.0 | 0.00 | 0.03 | 0.03 | 66 | 1013.0 |
| 20260904234605 | 89 | 165 | 1.0 | 4.0 | 0.00 | 0.03 | 0.03 | 66 | 1012.9 |
| 20260904233104 | 89 | 165 | 0.0 | 1.0 | 0.00 | 0.03 | 0.03 | 64 | 1013.0 |
| 20260904231604 | 90 | 0 | 0.0 | 5.0 | 0.00 | 0.03 | 0.03 | 60 | 1012.9 |
| 20260904230105 | 91 | 0 | 0.0 | 2.0 | 0.00 | 0.03 | 0.03 | 60 | 1012.9 |
| 20260904224607 | 92 | 165 | 0.0 | 3.0 | 0.00 | 0.03 | 0.03 | 60 | 1012.9 |
| 20260904223105 | 93 | 165 | 1.0 | 6.0 | 0.00 | 0.03 | 0.03 | 57 | 1012.9 |
| 20260904221606 | 93 | 165 | 0.0 | 3.0 | 0.00 | 0.03 | 0.03 | 56 | 1012.9 |
| 20260904220119 | 93 | 165 | 1.0 | 3.0 | 0.00 | 0.03 | 0.03 | 57 | 1013.1 |
| 20260904214602 | 93 | 0 | 1.0 | 4.0 | 0.00 | 0.03 | 0.03 | 57 | 1013.1 |
| 20260904213107 | 93 | 0 | 0.0 | 5.0 | 0.00 | 0.03 | 0.03 | 56 | 1013.3 |
| 20260904211608 | 92 | 165 | 1.0 | 4.0 | 0.00 | 0.03 | 0.03 | 59 | 1013.4 |
| 20260904210119 | 91 | 165 | 2.0 | 5.0 | 0.00 | 0.03 | 0.03 | 60 | 1013.4 |
| 20260904204604 | 92 | 165 | 1.0 | 5.0 | 0.00 | 0.09 | 0.03 | 61 | 1013.6 |
| 20260904203107 | 91 | 165 | 2.0 | 3.0 | 0.00 | 0.09 | 0.03 | 65 | 1014.0 |
| 20260904201604 | 90 | 165 | 0.0 | 3.0 | 0.00 | 0.09 | 0.03 | 68 | 1014.4 |
| 20260904200107 | 89 | 165 | 1.0 | 4.0 | 0.00 | 0.09 | 0.03 | 71 | 1014.3 |
| 20260904194612 | 88 | 0 | 1.0 | 3.0 | 0.01 | 0.11 | 0.03 | 76 | 1014.6 |
| 20260904193116 | 85 | 165 | 0.0 | 4.0 | 0.01 | 0.11 | 0.03 | 80 | 1014.9 |
| 20260904191605 | 83 | 165 | 1.0 | 2.0 | 0.01 | 0.11 | 0.03 | 85 | 1014.8 |
| 20260904190106 | 82 | 165 | 0.0 | 2.0 | 0.01 | 0.11 | 0.03 | 84 | 1015.0 |
| 20260904184631 | 82 | 165 | 2.0 | 6.0 | 0.00 | 0.10 | 0.02 | 80 | 1015.6 |
| 20260904183102 | 83 | 0 | 0.0 | 2.0 | 0.00 | 0.10 | 0.02 | 82 | 1015.8 |
| 20260904181612 | 83 | 0 | 0.0 | 3.0 | 0.00 | 0.10 | 0.02 | 81 | 1016.0 |
| 20260904180119 | 83 | 165 | 0.0 | 2.0 | 0.00 | 0.10 | 0.02 | 81 | 1016.1 |
| 20260904174618 | 82 | 165 | 2.0 | 3.0 | 0.00 | 0.10 | 0.02 | 82 | 1016.2 |
| 20260904173110 | 81 | 0 | 0.0 | 1.0 | 0.02 | 0.10 | 0.02 | 86 | 1015.9 |
| 20260904171607 | 80 | 165 | 0.0 | 1.0 | 0.02 | 0.10 | 0.02 | 87 | 1016.3 |
| 20260904170106 | 79 | 0 | 0.0 | 0.0 | 0.02 | 0.10 | 0.02 | 87 | 1016.3 |
| 20260904164605 | 81 | 0 | 0.0 | 4.0 | 0.02 | 0.10 | 0.02 | 81 | 1016.2 |
| 20260904163111 | 82 | 0 | 0.0 | 3.0 | 0.00 | 0.08 | 0.00 | 74 | 1016.2 |
| 20260904161605 | 84 | 165 | 0.0 | 6.0 | 0.00 | 0.08 | 0.00 | 74 | 1016.1 |
| 20260904160106 | 87 | 165 | 1.0 | 4.0 | 0.00 | 0.08 | 0.00 | 75 | 1015.8 |
| 20260904154600 | 89 | 165 | 0.0 | 4.0 | 0.00 | 0.08 | 0.00 | 71 | 1015.5 |
| 20260904153127 | 89 | 165 | 0.0 | 4.0 | 0.00 | 0.08 | 0.00 | 73 | 1015.1 |
| 20260904151606 | 88 | 165 | 0.0 | 2.0 | 0.00 | 0.08 | 0.00 | 73 | 1015.3 |
| 20260904150106 | 88 | 0 | 0.0 | 3.0 | 0.00 | 0.08 | 0.00 | 76 | 1015.1 |
| 20260904144603 | 88 | 0 | 0.0 | 3.0 | 0.00 | 0.08 | 0.00 | 77 | 1015.3 |
| 20260904143109 | 87 | 165 | 2.0 | 8.0 | 0.00 | 0.08 | 0.00 | 78 | 1015.1 |
| 20260904141604 | 87 | 0 | 1.0 | 4.0 | 0.00 | 0.08 | 0.00 | 80 | 1015.1 |
| 20260904140107 | 86 | 165 | 0.0 | 4.0 | 0.00 | 0.08 | 0.00 | 82 | 1015.2 |
| 20260904134605 | 85 | 165 | 1.0 | 4.0 | 0.00 | 0.08 | 0.00 | 83 | 1015.2 |
| 20260904133116 | 84 | 165 | 1.0 | 3.0 | 0.00 | 0.08 | 0.00 | 85 | 1015.2 |
| 20260904131609 | 83 | 0 | 0.0 | 2.0 | 0.00 | 0.08 | 0.00 | 88 | 1015.0 |
| 20260904130100 | 82 | 0 | 0.0 | 2.0 | 0.00 | 0.08 | 0.00 | 91 | 1014.9 |
| 20260904124611 | 80 | 0 | 0.0 | 0.0 | 0.00 | 0.08 | 0.00 | 92 | 1014.6 |
| 20260904123116 | 80 | 0 | 0.0 | 0.0 | 0.00 | 0.08 | 0.00 | 93 | 1014.4 |
| 20260904121605 | 80 | 0 | 0.0 | 0.0 | 0.00 | 0.08 | 0.00 | 93 | 1014.3 |
| 20260904120107 | 79 | 0 | 0.0 | 0.0 | 0.00 | 0.08 | 0.00 | 92 | 1014.2 |
| 20260904114604 | 80 | 0 | 0.0 | 0.0 | 0.00 | 0.08 | 0.00 | 92 | 1014.1 |
| 20260904113103 | 80 | 0 | 0.0 | 0.0 | 0.00 | 0.08 | 0.00 | 92 | 1014.2 |
| 20260904111609 | 80 | 0 | 0.0 | 0.0 | 0.00 | 0.08 | 0.00 | 92 | 1014.1 |
| 20260904110110 | 80 | 0 | 0.0 | 0.0 | 0.00 | 0.08 | 0.00 | 92 | 1014.1 |
| 20260904104605 | 80 | 0 | 0.0 | 0.0 | 0.00 | 0.08 | 0.00 | 91 | 1013.9 |
| 20260904103102 | 80 | 0 | 0.0 | 0.0 | 0.00 | 0.08 | 0.00 | 91 | 1013.7 |
| 20260904101612 | 80 | 0 | 0.0 | 0.0 | 0.00 | 0.08 | 0.00 | 91 | 1013.7 |
| 20260904100104 | 80 | 0 | 0.0 | 0.0 | 0.00 | 0.08 | 0.00 | 91 | 1013.6 |
| 20260904094604 | 80 | 0 | 0.0 | 0.0 | 0.00 | 0.08 | 0.00 | 91 | 1013.6 |
| 20260904093119 | 80 | 0 | 0.0 | 0.0 | 0.00 | 0.08 | 0.00 | 91 | 1013.6 |
| 20260904091606 | 80 | 0 | 0.0 | 0.0 | 0.00 | 0.08 | 0.00 | 91 | 1013.5 |
| 20260904090107 | 80 | 0 | 0.0 | 0.0 | 0.00 | 0.08 | 0.00 | 91 | 1013.6 |
| 20260904084603 | 80 | 0 | 0.0 | 0.0 | 0.00 | 0.08 | 0.00 | 91 | 1013.5 |
| 20260904083105 | 80 | 0 | 0.0 | 0.0 | 0.00 | 0.08 | 0.00 | 91 | 1013.7 |
| 20260904081604 | 80 | 0 | 0.0 | 0.0 | 0.00 | 0.08 | 0.00 | 91 | 1013.7 |
| 20260904080104 | 80 | 0 | 0.0 | 0.0 | 0.00 | 0.08 | 0.00 | 91 | 1013.8 |
| 20260904074606 | 80 | 0 | 0.0 | 0.0 | 0.00 | 0.08 | 0.00 | 91 | 1013.7 |
| 20260904073103 | 81 | 0 | 0.0 | 0.0 | 0.00 | 0.08 | 0.00 | 91 | 1013.8 |
| 20260904071605 | 81 | 0 | 0.0 | 0.0 | 0.00 | 0.08 | 0.00 | 90 | 1013.9 |
| 20260904070105 | 81 | 0 | 0.0 | 0.0 | 0.00 | 0.08 | 0.00 | 90 | 1014.0 |
| 20260904064606 | 81 | 0 | 0.0 | 0.0 | 0.00 | 0.08 | 0.00 | 89 | 1014.0 |
| 20260904063103 | 81 | 0 | 0.0 | 1.0 | 0.00 | 0.08 | 0.00 | 89 | 1014.2 |
| 20260904061601 | 81 | 0 | 0.0 | 0.0 | 0.00 | 0.08 | 0.00 | 89 | 1014.0 |
| 20260904060106 | 81 | 0 | 0.0 | 0.0 | 0.00 | 0.08 | 0.00 | 89 | 1014.0 |
| 20260904054602 | 81 | 0 | 0.0 | 4.0 | 0.00 | 0.08 | 0.00 | 89 | 1014.0 |
| 20260904053100 | 81 | 0 | 0.0 | 1.0 | 0.00 | 0.08 | 0.00 | 89 | 1013.9 |
| 20260904051604 | 81 | 0 | 0.0 | 0.0 | 0.00 | 0.08 | 0.00 | 88 | 1014.0 |
| 20260904050107 | 82 | 0 | 0.0 | 1.0 | 0.00 | 0.08 | 0.00 | 88 | 1014.0 |
| 20260904044611 | 82 | 0 | 0.0 | 0.0 | 0.00 | 0.08 | 0.08 | 88 | 1014.0 |
| 20260904043102 | 82 | 0 | 0.0 | 2.0 | 0.00 | 0.08 | 0.08 | 88 | 1013.9 |
| 20260904041603 | 82 | 0 | 0.0 | 2.0 | 0.00 | 0.08 | 0.08 | 88 | 1014.0 |